createdAt,value
2023-02-08T00:00:10.693Z,40.10
2023-02-08T00:02:37.679Z,39.80
2023-02-08T00:05:04.801Z,39.80
2023-02-08T00:07:31.641Z,39.60
2023-02-08T00:09:58.505Z,39.80
2023-02-08T00:12:25.539Z,39.60
2023-02-08T00:14:52.353Z,39.30
2023-02-08T00:17:19.294Z,39.40
2023-02-08T00:19:46.187Z,39.70
2023-02-08T00:22:13.038Z,39.20
2023-02-08T00:24:40.040Z,39.40
2023-02-08T00:27:07.185Z,38.90
2023-02-08T00:29:34.093Z,39.10
2023-02-08T00:32:01.092Z,39.20
2023-02-08T00:34:28.058Z,39.60
2023-02-08T00:36:54.954Z,39.60
2023-02-08T00:39:21.861Z,39.60
2023-02-08T00:41:48.675Z,39.70
2023-02-08T00:44:15.538Z,39.60
2023-02-08T00:46:42.429Z,39.60
2023-02-08T00:49:09.309Z,40.20
2023-02-08T00:51:36.139Z,40.70
2023-02-08T00:54:03.051Z,40.40
2023-02-08T00:56:29.860Z,40.50
2023-02-08T00:58:56.609Z,41.00
2023-02-08T01:01:23.417Z,40.70
2023-02-08T01:03:50.194Z,41.10
2023-02-08T01:06:18.321Z,41.30
2023-02-08T01:08:45.205Z,41.30
2023-02-08T01:11:14.976Z,41.40
2023-02-08T01:13:42.268Z,41.60
2023-02-08T01:16:17.380Z,41.90
2023-02-08T01:18:46.637Z,41.80
2023-02-08T01:21:20.021Z,41.90
2023-02-08T01:23:47.679Z,42.30
2023-02-08T01:26:16.885Z,42.20
2023-02-08T01:28:44.113Z,42.10
2023-02-08T01:31:15.019Z,42.10
2023-02-08T01:33:42.793Z,42.50
2023-02-08T01:36:11.002Z,42.10
2023-02-08T01:38:38.615Z,42.10
2023-02-08T01:41:07.853Z,42.50
2023-02-08T01:43:56.412Z,42.20
2023-02-08T01:46:23.369Z,42.50
2023-02-08T01:48:51.000Z,42.30
2023-02-08T01:51:21.929Z,42.70
2023-02-08T01:53:50.648Z,42.40
2023-02-08T01:56:37.492Z,42.50
2023-02-08T01:59:09.018Z,42.30
2023-02-08T02:01:36.311Z,42.70
2023-02-08T02:04:04.933Z,42.50
2023-02-08T02:06:37.310Z,42.60
2023-02-08T02:09:04.054Z,43.00
2023-02-08T02:11:30.972Z,42.80
2023-02-08T02:13:58.701Z,42.80
2023-02-08T02:16:25.503Z,42.80
2023-02-08T02:18:52.404Z,42.60
2023-02-08T02:21:41.710Z,42.50
2023-02-08T02:24:42.344Z,42.40
2023-02-08T02:27:40.781Z,42.60
2023-02-08T02:30:30.585Z,42.50
2023-02-08T02:33:13.637Z,42.50
2023-02-08T02:36:01.632Z,42.40
2023-02-08T02:38:55.877Z,42.40
2023-02-08T02:41:44.513Z,42.10
2023-02-08T02:44:22.051Z,42.30
2023-02-08T02:47:01.345Z,41.90
2023-02-08T02:49:39.403Z,42.10
2023-02-08T02:52:15.861Z,42.00
2023-02-08T02:54:53.268Z,41.90
2023-02-08T02:57:28.163Z,41.90
2023-02-08T02:59:55.408Z,41.80
2023-02-08T03:02:22.720Z,41.60
2023-02-08T03:04:57.567Z,41.60
2023-02-08T03:07:31.630Z,42.00
2023-02-08T03:10:07.600Z,41.70
2023-02-08T03:12:58.727Z,41.50
2023-02-08T03:16:11.403Z,41.80
2023-02-08T03:18:47.805Z,41.10
2023-02-08T03:21:20.659Z,41.70
2023-02-08T03:23:53.378Z,41.40
2023-02-08T03:26:59.804Z,41.40
2023-02-08T03:29:55.345Z,41.50
2023-02-08T03:32:49.780Z,41.50
2023-02-08T03:35:37.612Z,41.40
2023-02-08T03:38:29.357Z,41.30
2023-02-08T03:41:00.026Z,41.40
2023-02-08T03:44:01.990Z,41.50
2023-02-08T03:46:36.660Z,41.40
2023-02-08T03:49:08.629Z,41.70
2023-02-08T03:51:39.072Z,41.60
2023-02-08T03:54:09.868Z,42.20
2023-02-08T03:57:03.342Z,41.80
2023-02-08T03:59:35.917Z,41.60
2023-02-08T04:02:05.918Z,42.40
2023-02-08T04:04:45.046Z,42.20
2023-02-08T04:07:12.147Z,42.00
2023-02-08T04:09:39.336Z,42.30
2023-02-08T04:12:06.454Z,42.30
2023-02-08T04:14:33.295Z,42.60
2023-02-08T04:17:00.138Z,42.30
2023-02-08T04:19:26.928Z,42.40
2023-02-08T04:21:53.896Z,42.30
2023-02-08T04:24:20.928Z,42.60
2023-02-08T04:26:50.304Z,42.40
2023-02-08T04:29:17.073Z,42.30
2023-02-08T04:31:43.825Z,42.60
2023-02-08T04:34:10.679Z,42.40
2023-02-08T04:36:37.499Z,42.50
2023-02-08T04:39:04.494Z,42.40
2023-02-08T04:41:31.294Z,42.30
2023-02-08T04:43:58.070Z,42.70
2023-02-08T04:46:24.946Z,42.70
2023-02-08T04:48:51.771Z,42.30
2023-02-08T04:51:18.605Z,42.70
2023-02-08T04:53:45.397Z,42.90
2023-02-08T04:56:12.239Z,42.90
2023-02-08T04:58:39.024Z,42.90
2023-02-08T05:01:10.905Z,43.40
2023-02-08T05:03:38.000Z,42.80
2023-02-08T05:06:04.956Z,42.90
2023-02-08T05:08:31.819Z,43.00
2023-02-08T05:10:58.602Z,42.90
2023-02-08T05:13:25.431Z,42.90
2023-02-08T05:15:52.326Z,42.80
2023-02-08T05:18:19.389Z,43.00
2023-02-08T05:20:46.276Z,42.80
2023-02-08T05:23:13.137Z,42.80
2023-02-08T05:25:40.554Z,42.90
2023-02-08T05:28:07.415Z,42.70
2023-02-08T05:30:34.315Z,42.70
2023-02-08T05:33:01.100Z,42.90
2023-02-08T05:35:27.887Z,42.70
2023-02-08T05:37:54.641Z,42.90
2023-02-08T05:40:21.540Z,42.60
2023-02-08T05:42:48.335Z,42.30
2023-02-08T05:45:15.282Z,42.60
2023-02-08T05:47:42.642Z,42.70
2023-02-08T05:50:10.429Z,42.80
2023-02-08T05:52:37.334Z,42.70
2023-02-08T05:55:04.321Z,42.70
2023-02-08T05:57:33.578Z,42.80
2023-02-08T06:00:01.774Z,42.10
2023-02-08T06:02:28.668Z,42.70
2023-02-08T06:04:55.744Z,42.70
2023-02-08T06:07:22.628Z,42.70
2023-02-08T06:09:49.451Z,42.50
2023-02-08T06:12:16.352Z,42.70
2023-02-08T06:14:43.337Z,42.40
2023-02-08T06:17:10.147Z,42.60
2023-02-08T06:19:37.018Z,42.50
2023-02-08T06:22:03.855Z,42.50
2023-02-08T06:24:30.836Z,42.20
2023-02-08T06:26:57.708Z,42.60
2023-02-08T06:29:24.649Z,42.10
2023-02-08T06:31:51.585Z,41.90
2023-02-08T06:34:18.466Z,42.20
2023-02-08T06:36:45.784Z,42.20
2023-02-08T06:39:12.759Z,42.30
2023-02-08T06:41:39.553Z,42.30
2023-02-08T06:44:06.733Z,42.20
2023-02-08T06:46:33.914Z,42.10
2023-02-08T06:49:00.763Z,42.10
2023-02-08T06:51:27.988Z,42.40
2023-02-08T06:53:55.074Z,42.40
2023-02-08T06:56:21.881Z,42.20
2023-02-08T06:58:48.698Z,42.40
2023-02-08T07:01:16.333Z,42.10
2023-02-08T07:03:43.247Z,42.10
2023-02-08T07:06:18.595Z,42.40
2023-02-08T07:08:46.265Z,42.30
2023-02-08T07:11:15.641Z,41.80
2023-02-08T07:13:42.732Z,41.70
2023-02-08T07:16:10.309Z,42.20
2023-02-08T07:18:37.643Z,41.90
2023-02-08T07:21:05.054Z,42.20
2023-02-08T07:23:31.971Z,41.70
2023-02-08T07:26:04.987Z,41.80
2023-02-08T07:28:32.452Z,41.70
2023-02-08T07:30:59.392Z,41.50
2023-02-08T07:33:26.556Z,41.10
2023-02-08T07:35:53.425Z,41.50
2023-02-08T07:38:20.903Z,41.70
2023-02-08T07:40:48.028Z,40.90
2023-02-08T07:43:14.859Z,40.60
2023-02-08T07:45:42.044Z,40.30
2023-02-08T07:48:09.099Z,40.70
2023-02-08T07:50:35.984Z,40.50
2023-02-08T07:53:02.831Z,40.80
2023-02-08T07:55:29.696Z,40.70
2023-02-08T07:57:57.342Z,40.80
2023-02-08T08:00:24.682Z,40.50
2023-02-08T08:02:51.710Z,40.30
2023-02-08T08:05:18.706Z,40.40
2023-02-08T08:07:45.694Z,40.20
2023-02-08T08:10:12.523Z,40.10
2023-02-08T08:12:39.500Z,40.30
2023-02-08T08:15:07.050Z,40.00
2023-02-08T08:17:33.869Z,40.90
2023-02-08T08:20:00.764Z,40.30
2023-02-08T08:22:27.652Z,40.10
2023-02-08T08:24:54.918Z,39.80
2023-02-08T08:27:21.802Z,39.50
2023-02-08T08:29:51.321Z,39.50
2023-02-08T08:32:18.989Z,39.40
2023-02-08T08:34:45.804Z,39.10
2023-02-08T08:37:12.683Z,39.60
2023-02-08T08:39:39.664Z,39.10
2023-02-08T08:42:06.529Z,39.40
2023-02-08T08:44:33.835Z,39.60
2023-02-08T08:47:01.261Z,39.50
2023-02-08T08:49:29.239Z,39.70
2023-02-08T08:51:56.860Z,39.80
2023-02-08T08:54:24.029Z,39.50
2023-02-08T08:56:50.916Z,39.40
2023-02-08T08:59:18.162Z,39.20
2023-02-08T09:01:45.113Z,39.50
2023-02-08T09:04:12.266Z,39.70
2023-02-08T09:06:39.202Z,39.40
2023-02-08T09:09:06.625Z,39.20
2023-02-08T09:11:33.598Z,38.80
2023-02-08T09:14:04.680Z,39.50
2023-02-08T09:16:32.997Z,39.40
2023-02-08T09:19:04.670Z,39.60
2023-02-08T09:21:31.779Z,39.80
2023-02-08T09:23:58.674Z,39.30
2023-02-08T09:26:26.681Z,39.50
2023-02-08T09:28:53.992Z,39.80
2023-02-08T09:31:26.785Z,39.50
2023-02-08T09:33:56.282Z,39.60
2023-02-08T09:36:24.438Z,40.10
2023-02-08T09:38:54.650Z,40.30
2023-02-08T09:41:57.826Z,40.90
2023-02-08T09:44:47.661Z,40.80
2023-02-08T09:47:22.654Z,40.60
2023-02-08T09:50:17.068Z,41.00
2023-02-08T09:53:02.446Z,41.40
2023-02-08T09:55:37.515Z,41.70
2023-02-08T09:58:23.638Z,41.60
2023-02-08T10:00:52.840Z,42.50
2023-02-08T10:03:29.526Z,42.30
2023-02-08T10:05:56.708Z,41.90
2023-02-08T10:08:34.265Z,42.30
2023-02-08T10:11:09.356Z,42.30
2023-02-08T10:13:56.794Z,42.50
2023-02-08T10:16:44.870Z,42.30
2023-02-08T10:19:39.537Z,42.40
2023-02-08T10:22:43.771Z,42.40
2023-02-08T10:25:45.451Z,42.20
2023-02-08T10:28:42.853Z,42.30
2023-02-08T10:31:18.464Z,42.30
2023-02-08T10:34:00.396Z,42.60
2023-02-08T10:36:32.116Z,42.50
2023-02-08T10:39:00.635Z,42.20
2023-02-08T10:41:35.644Z,42.60
2023-02-08T10:44:18.590Z,42.50
2023-02-08T10:46:56.503Z,42.40
2023-02-08T10:49:46.793Z,42.40
2023-02-08T10:52:13.733Z,42.50
2023-02-08T10:54:40.662Z,42.70
2023-02-08T10:57:21.991Z,42.80
2023-02-08T10:59:56.451Z,42.30
2023-02-08T11:02:47.263Z,42.30
2023-02-08T11:05:19.098Z,42.30
2023-02-08T11:07:46.264Z,42.10
2023-02-08T11:10:19.117Z,42.20
2023-02-08T11:13:05.646Z,42.30
2023-02-08T11:15:48.868Z,42.70
2023-02-08T11:18:28.808Z,42.90
2023-02-08T11:20:58.760Z,42.50
2023-02-08T11:23:28.752Z,42.20
2023-02-08T11:26:15.374Z,41.70
2023-02-08T11:28:43.126Z,41.50
2023-02-08T11:31:28.792Z,41.70
2023-02-08T11:34:07.497Z,42.30
2023-02-08T11:36:36.117Z,41.70
2023-02-08T11:39:18.924Z,41.80
2023-02-08T11:41:47.529Z,42.40
2023-02-08T11:44:38.008Z,41.30
2023-02-08T11:47:08.228Z,41.10
2023-02-08T11:49:41.309Z,41.00
2023-02-08T11:52:41.603Z,40.70
2023-02-08T11:55:17.564Z,41.00
2023-02-08T11:58:03.075Z,40.70
2023-02-08T12:00:35.391Z,40.70
2023-02-08T12:03:16.072Z,40.60
2023-02-08T12:06:10.669Z,40.30
2023-02-08T12:09:00.590Z,40.50
2023-02-08T12:11:42.712Z,40.60
2023-02-08T12:14:46.925Z,39.70
2023-02-08T12:17:45.993Z,39.70
2023-02-08T12:20:33.760Z,39.90
2023-02-08T12:23:26.836Z,39.50
2023-02-08T12:26:12.355Z,39.80
2023-02-08T12:28:41.920Z,39.50
2023-02-08T12:31:30.806Z,39.40
2023-02-08T12:34:25.778Z,39.50
2023-02-08T12:37:32.449Z,39.20
2023-02-08T12:40:47.575Z,38.90
2023-02-08T12:43:46.924Z,39.90
2023-02-08T12:46:45.740Z,39.80
2023-02-08T12:49:31.019Z,39.30
2023-02-08T12:52:31.566Z,39.10
2023-02-08T12:55:22.032Z,38.90
2023-02-08T12:58:12.655Z,38.70
2023-02-08T13:00:42.047Z,38.80
2023-02-08T13:03:12.116Z,38.30
2023-02-08T13:05:50.742Z,38.40
2023-02-08T13:08:58.836Z,39.40
2023-02-08T13:11:48.723Z,39.90
2023-02-08T13:14:39.511Z,39.60
2023-02-08T13:17:41.476Z,39.40
2023-02-08T13:20:20.346Z,40.20
2023-02-08T13:22:48.628Z,40.30
2023-02-08T13:25:27.090Z,40.20
2023-02-08T13:27:54.045Z,40.20
2023-02-08T13:30:22.855Z,40.50
2023-02-08T13:32:51.031Z,40.80
2023-02-08T13:35:36.197Z,40.70
2023-02-08T13:38:06.408Z,40.00
2023-02-08T13:40:38.574Z,40.20
2023-02-08T13:43:09.289Z,40.20
2023-02-08T13:45:44.123Z,40.40
2023-02-08T13:48:14.796Z,40.10
2023-02-08T13:50:43.697Z,40.10
2023-02-08T13:53:11.632Z,40.70
2023-02-08T13:55:53.514Z,40.60
2023-02-08T13:58:34.635Z,40.10
2023-02-08T14:01:23.169Z,40.20
2023-02-08T14:04:13.243Z,40.70
2023-02-08T14:07:01.290Z,40.00
2023-02-08T14:10:06.951Z,40.30
2023-02-08T14:12:49.657Z,40.70
2023-02-08T14:15:16.493Z,40.70
2023-02-08T14:17:50.152Z,40.50
2023-02-08T14:20:21.998Z,40.70
2023-02-08T14:22:55.273Z,40.90
2023-02-08T14:25:59.713Z,40.50
2023-02-08T14:28:29.196Z,40.30
2023-02-08T14:30:58.828Z,40.50
2023-02-08T14:33:29.868Z,40.40
2023-02-08T14:36:02.789Z,40.40
2023-02-08T14:39:06.740Z,40.60
2023-02-08T14:41:46.905Z,40.20
2023-02-08T14:44:38.657Z,40.80
2023-02-08T14:47:28.097Z,40.80
2023-02-08T14:50:18.878Z,40.70
2023-02-08T14:52:59.270Z,41.00
2023-02-08T14:55:31.890Z,41.60
2023-02-08T14:58:02.859Z,41.70
2023-02-08T15:00:34.211Z,41.60
2023-02-08T15:03:03.734Z,41.30
2023-02-08T15:05:35.797Z,41.60
2023-02-08T15:08:03.463Z,41.10
2023-02-08T15:10:33.193Z,41.40
2023-02-08T15:13:06.507Z,41.10
2023-02-08T15:15:42.771Z,41.10
2023-02-08T15:18:20.826Z,40.90
2023-02-08T15:21:02.326Z,41.10
2023-02-08T15:23:30.757Z,41.00
2023-02-08T15:26:20.994Z,41.10
2023-02-08T15:28:48.115Z,40.90
2023-02-08T15:31:24.224Z,40.80
2023-02-08T15:33:54.057Z,41.10
2023-02-08T15:36:33.263Z,40.90
2023-02-08T15:39:09.427Z,41.20
2023-02-08T15:41:38.115Z,41.50
2023-02-08T15:44:30.346Z,41.40
2023-02-08T15:47:05.961Z,41.40
2023-02-08T15:49:39.698Z,41.50
2023-02-08T15:52:08.298Z,41.60
2023-02-08T15:54:35.250Z,41.80
2023-02-08T15:57:30.040Z,41.80
2023-02-08T15:59:57.061Z,42.10
2023-02-08T16:02:34.825Z,42.50
2023-02-08T16:05:03.628Z,42.20
2023-02-08T16:07:46.966Z,42.60
2023-02-08T16:10:43.839Z,42.30
2023-02-08T16:13:25.496Z,42.60
2023-02-08T16:16:03.788Z,42.40
2023-02-08T16:18:35.058Z,42.00
2023-02-08T16:21:05.621Z,42.60
2023-02-08T16:23:39.122Z,42.50
2023-02-08T16:26:20.289Z,42.40
2023-02-08T16:29:02.126Z,42.80
2023-02-08T16:31:32.016Z,42.50
2023-02-08T16:34:17.328Z,42.80
2023-02-08T16:36:50.632Z,42.70
2023-02-08T16:39:17.469Z,43.00
2023-02-08T16:41:55.475Z,42.60
2023-02-08T16:44:34.372Z,42.50
2023-02-08T16:47:02.945Z,43.00
2023-02-08T16:49:29.788Z,43.50
2023-02-08T16:51:58.513Z,43.20
2023-02-08T16:54:28.382Z,43.00
2023-02-08T16:57:00.305Z,43.00
2023-02-08T16:59:28.114Z,44.30
2023-02-08T17:01:56.572Z,43.50
2023-02-08T17:04:26.692Z,43.10
2023-02-08T17:06:54.016Z,43.00
2023-02-08T17:09:20.831Z,43.20
2023-02-08T17:11:47.735Z,43.00
2023-02-08T17:14:15.111Z,43.10
2023-02-08T17:16:41.949Z,43.30
2023-02-08T17:19:17.156Z,43.50
2023-02-08T17:21:44.228Z,43.40
2023-02-08T17:24:11.044Z,43.40
2023-02-08T17:26:42.145Z,43.40
2023-02-08T17:29:10.850Z,43.50
2023-02-08T17:31:37.704Z,43.50
2023-02-08T17:34:04.607Z,43.10
2023-02-08T17:36:36.853Z,42.60
2023-02-08T17:39:05.545Z,43.00
2023-02-08T17:41:32.393Z,43.10
2023-02-08T17:43:59.317Z,42.80
2023-02-08T17:46:30.578Z,43.00
2023-02-08T17:49:01.574Z,42.80
2023-02-08T17:51:28.752Z,42.90
2023-02-08T17:53:55.612Z,43.00
2023-02-08T17:56:24.893Z,43.20
2023-02-08T17:58:53.726Z,42.30
2023-02-08T18:01:23.671Z,42.10
2023-02-08T18:03:51.743Z,42.10
2023-02-08T18:06:19.944Z,42.40
2023-02-08T18:08:47.040Z,42.70
2023-02-08T18:11:18.958Z,42.70
2023-02-08T18:13:47.557Z,42.70
2023-02-08T18:16:17.714Z,42.70
2023-02-08T18:18:45.097Z,42.10
2023-02-08T18:21:18.132Z,42.30
2023-02-08T18:23:46.262Z,42.50
2023-02-08T18:26:16.946Z,42.20
2023-02-08T18:28:44.882Z,42.20
2023-02-08T18:31:15.751Z,42.20
2023-02-08T18:33:43.943Z,41.50
2023-02-08T18:36:12.403Z,41.40
2023-02-08T18:38:45.993Z,41.10
2023-02-08T18:41:16.466Z,41.10
2023-02-08T18:43:43.388Z,41.10
2023-02-08T18:46:14.559Z,41.10
2023-02-08T18:48:42.159Z,40.60
2023-02-08T18:51:10.890Z,41.10
2023-02-08T18:53:40.258Z,40.90
2023-02-08T18:56:10.773Z,41.00
2023-02-08T18:58:37.630Z,41.00
2023-02-08T19:01:14.085Z,40.10
2023-02-08T19:03:41.922Z,40.50
2023-02-08T19:06:14.837Z,40.60
2023-02-08T19:08:41.767Z,40.10
2023-02-08T19:11:17.442Z,39.70
2023-02-08T19:13:44.727Z,39.80
2023-02-08T19:16:12.452Z,39.80
2023-02-08T19:18:39.890Z,39.60
2023-02-08T19:21:08.827Z,39.60
2023-02-08T19:23:35.910Z,39.30
2023-02-08T19:26:23.866Z,39.70
2023-02-08T19:28:52.149Z,39.50
2023-02-08T19:31:21.875Z,38.90
2023-02-08T19:33:51.361Z,39.40
2023-02-08T19:36:23.316Z,39.50
2023-02-08T19:38:52.757Z,39.30
2023-02-08T19:41:33.163Z,39.30
2023-02-08T19:44:01.190Z,39.40
2023-02-08T19:46:28.061Z,39.70
2023-02-08T19:49:00.026Z,39.90
2023-02-08T19:51:29.021Z,39.90
2023-02-08T19:53:58.629Z,40.00
2023-02-08T19:56:25.438Z,39.60
2023-02-08T19:58:52.338Z,40.10
2023-02-08T20:01:21.694Z,40.20
2023-02-08T20:03:50.354Z,40.20
2023-02-08T20:06:20.181Z,40.40
2023-02-08T20:08:49.177Z,40.40
2023-02-08T20:11:27.964Z,40.60
2023-02-08T20:13:57.189Z,40.20
2023-02-08T20:16:24.962Z,40.40
2023-02-08T20:18:51.956Z,40.30
2023-02-08T20:21:19.514Z,40.10
2023-02-08T20:23:46.895Z,40.30
2023-02-08T20:26:21.367Z,40.40
2023-02-08T20:28:53.694Z,40.00
2023-02-08T20:31:27.679Z,40.50
2023-02-08T20:33:57.468Z,40.40
2023-02-08T20:36:26.888Z,40.30
2023-02-08T20:38:56.866Z,40.70
2023-02-08T20:41:25.499Z,40.40
2023-02-08T20:43:53.559Z,40.30
2023-02-08T20:46:26.304Z,39.80
2023-02-08T20:48:55.841Z,39.90
2023-02-08T20:51:23.885Z,40.40
2023-02-08T20:53:52.688Z,40.20
2023-02-08T20:56:29.181Z,40.00
2023-02-08T20:58:56.900Z,40.50
2023-02-08T21:01:25.982Z,40.70
2023-02-08T21:03:58.131Z,40.40
2023-02-08T21:06:33.424Z,40.80
2023-02-08T21:09:06.613Z,41.10
2023-02-08T21:11:34.817Z,40.90
2023-02-08T21:14:02.879Z,41.00
2023-02-08T21:16:30.345Z,41.10
2023-02-08T21:18:57.576Z,41.30
2023-02-08T21:21:25.158Z,40.90
2023-02-08T21:23:51.940Z,41.30
2023-02-08T21:26:20.842Z,40.80
2023-02-08T21:28:47.831Z,41.40
2023-02-08T21:31:19.712Z,41.50
2023-02-08T21:33:46.692Z,41.20
2023-02-08T21:36:17.009Z,41.60
2023-02-08T21:38:44.512Z,41.10
2023-02-08T21:41:23.295Z,41.20
2023-02-08T21:43:50.991Z,41.60
2023-02-08T21:46:17.883Z,41.70
2023-02-08T21:49:04.300Z,41.90
2023-02-08T21:51:49.833Z,41.80
2023-02-08T21:54:40.235Z,42.00
2023-02-08T21:57:10.312Z,41.90
2023-02-08T21:59:37.852Z,42.00
2023-02-08T22:02:06.985Z,42.00
2023-02-08T22:04:35.481Z,41.70
2023-02-08T22:07:04.616Z,41.20
2023-02-08T22:09:31.644Z,41.80
2023-02-08T22:11:58.915Z,41.70
2023-02-08T22:14:25.838Z,41.60
2023-02-08T22:16:52.694Z,41.60
2023-02-08T22:19:19.575Z,42.10
2023-02-08T22:21:46.354Z,41.80
2023-02-08T22:24:13.145Z,42.00
2023-02-08T22:26:40.005Z,42.00
2023-02-08T22:29:06.797Z,42.10
2023-02-08T22:31:33.680Z,42.10
2023-02-08T22:34:00.749Z,42.00
2023-02-08T22:36:27.584Z,41.60
2023-02-08T22:38:54.501Z,42.10
2023-02-08T22:41:21.864Z,41.80
2023-02-08T22:43:49.530Z,41.90
2023-02-08T22:46:16.368Z,42.10
2023-02-08T22:48:43.217Z,42.20
2023-02-08T22:51:14.657Z,41.90
2023-02-08T22:53:41.520Z,42.30
2023-02-08T22:56:08.810Z,42.40
2023-02-08T22:58:35.941Z,42.40
2023-02-08T23:01:03.910Z,42.30
2023-02-08T23:03:30.792Z,42.60
2023-02-08T23:05:57.579Z,42.90
2023-02-08T23:08:24.423Z,42.70
2023-02-08T23:11:01.904Z,42.50
2023-02-08T23:13:29.769Z,42.80
2023-02-08T23:15:57.147Z,43.00
2023-02-08T23:18:24.554Z,43.00
2023-02-08T23:20:51.374Z,42.70
2023-02-08T23:23:18.789Z,43.00
2023-02-08T23:25:45.641Z,43.00
2023-02-08T23:28:12.834Z,43.30
2023-02-08T23:30:43.744Z,43.00
2023-02-08T23:33:10.780Z,42.40
2023-02-08T23:35:41.267Z,42.50
2023-02-08T23:38:09.195Z,42.40
2023-02-08T23:40:36.059Z,41.90
2023-02-08T23:43:03.836Z,41.70
2023-02-08T23:45:30.860Z,41.50
2023-02-08T23:47:57.745Z,41.90
2023-02-08T23:50:24.834Z,42.00
2023-02-08T23:52:51.754Z,42.20
2023-02-08T23:55:18.605Z,42.20
2023-02-08T23:57:45.500Z,42.30
